Time;durP1;ratioP1;P1;durP2;ratioP2;P2;SDS_P1;SDS_P2;PMS_P1;PMS_P2;Temp;Humidity;BMP_temperature;BMP_pressure;BME280_temperature;BME280_humidity;BME280_pressure;Samples;Min_cycle;Max_cycle;Signal;HPM_P1;HPM_P2
2021/08/28 00:01:22;;;;;;;1.97;1.43;;;;;;;;;;10266480;28;20498;-64
2021/08/28 00:06:20;;;;;;;3.83;1.37;;;;;;;;;;10273553;28;20804;-64
2021/08/28 00:11:17;;;;;;;2.53;0.87;;;;;;;;;;10291988;28;20034;-66
2021/08/28 00:16:15;;;;;;;2.03;0.83;;;;;;;;;;10292869;28;20091;-65
2021/08/28 00:21:13;;;;;;;6.13;1.45;;;;;;;;;;10271576;28;20042;-64
2021/08/28 00:26:11;;;;;;;2.40;1.23;;;;;;;;;;10275418;28;20038;-64
2021/08/28 00:31:08;;;;;;;3.40;1.30;;;;;;;;;;10279992;28;20041;-63
2021/08/28 00:36:06;;;;;;;3.03;1.07;;;;;;;;;;10262718;28;20085;-62
2021/08/28 00:41:03;;;;;;;2.57;1.47;;;;;;;;;;10284918;28;20037;-65
2021/08/28 00:46:00;;;;;;;4.20;1.43;;;;;;;;;;10301438;28;20380;-64
2021/08/28 00:50:58;;;;;;;2.43;1.53;;;;;;;;;;10279936;28;20018;-64
2021/08/28 00:55:55;;;;;;;4.63;2.27;;;;;;;;;;10286484;28;20030;-64
2021/08/28 01:00:54;;;;;;;5.77;1.93;;;;;;;;;;10262352;28;20414;-63
2021/08/28 01:05:57;;;;;;;4.47;1.50;;;;;;;;;;10284801;28;20117;-63
2021/08/28 01:11:11;;;;;;;7.55;2.63;;;;;;;;;;10264640;28;20042;-64
2021/08/28 01:16:20;;;;;;;2.88;1.52;;;;;;;;;;10267582;28;20456;-64
2021/08/28 01:21:20;;;;;;;2.67;1.90;;;;;;;;;;10268305;28;20065;-63
2021/08/28 01:26:48;;;;;;;4.95;2.40;;;;;;;;;;10274596;28;20033;-65
2021/08/28 01:31:48;;;;;;;2.25;1.83;;;;;;;;;;10279120;28;20052;-66
2021/08/28 01:36:47;;;;;;;2.95;1.80;;;;;;;;;;10271690;28;20458;-64
2021/08/28 01:42:04;;;;;;;0.57;0.55;;;;;;;;;;10266649;28;20514;-64
2021/08/28 01:47:06;;;;;;;2.05;1.40;;;;;;;;;;10267995;28;20394;-63
2021/08/28 01:52:04;;;;;;;1.55;1.05;;;;;;;;;;10280903;28;20025;-63
2021/08/28 01:57:05;;;;;;;3.63;1.60;;;;;;;;;;10274933;28;20025;-63
2021/08/28 02:02:04;;;;;;;3.10;2.15;;;;;;;;;;10247671;28;20398;-63
2021/08/28 02:07:16;;;;;;;6.32;2.35;;;;;;;;;;10278845;28;20052;-63
2021/08/28 02:12:14;;;;;;;2.60;1.85;;;;;;;;;;10281232;28;20053;-65
2021/08/28 02:17:12;;;;;;;4.78;1.38;;;;;;;;;;10244730;28;20113;-63
2021/08/28 02:22:19;;;;;;;2.47;1.58;;;;;;;;;;10277010;28;20141;-64
2021/08/28 02:27:48;;;;;;;6.40;1.15;;;;;;;;;;10275386;28;20029;-66
2021/08/28 02:32:48;;;;;;;4.78;1.77;;;;;;;;;;10268910;28;20038;-64
2021/08/28 02:37:48;;;;;;;4.15;2.53;;;;;;;;;;10258695;28;20037;-64
2021/08/28 02:42:45;;;;;;;5.47;1.75;;;;;;;;;;10267127;28;20115;-63
2021/08/28 02:47:43;;;;;;;6.27;1.90;;;;;;;;;;10266733;28;20087;-64
2021/08/28 02:52:43;;;;;;;2.85;1.60;;;;;;;;;;10276420;28;20525;-66
2021/08/28 02:57:45;;;;;;;5.57;2.38;;;;;;;;;;10285058;28;20092;-64
2021/08/28 03:02:43;;;;;;;2.72;1.63;;;;;;;;;;10297589;28;20044;-67
2021/08/28 03:07:42;;;;;;;3.22;1.50;;;;;;;;;;10317176;28;20033;-65
2021/08/28 03:12:40;;;;;;;7.15;2.33;;;;;;;;;;10323897;28;20018;-63
2021/08/28 03:17:40;;;;;;;4.97;1.90;;;;;;;;;;10312698;28;20378;-63
2021/08/28 03:22:39;;;;;;;2.95;1.77;;;;;;;;;;10331304;28;20037;-65
2021/08/28 03:27:39;;;;;;;4.45;1.75;;;;;;;;;;10312227;28;20262;-63
2021/08/28 03:32:37;;;;;;;3.63;2.38;;;;;;;;;;10351280;28;20413;-62
2021/08/28 03:37:35;;;;;;;5.55;1.95;;;;;;;;;;10330266;28;20044;-62
2021/08/28 03:42:33;;;;;;;1.77;1.52;;;;;;;;;;10276999;28;20041;-64
2021/08/28 03:47:31;;;;;;;4.83;1.80;;;;;;;;;;10291823;28;20033;-65
2021/08/28 03:52:29;;;;;;;7.00;2.95;;;;;;;;;;10313101;28;20037;-64
2021/08/28 03:57:27;;;;;;;13.37;3.97;;;;;;;;;;10313489;28;20045;-64
2021/08/28 04:02:25;;;;;;;5.03;1.60;;;;;;;;;;10348409;28;20033;-64
2021/08/28 04:07:25;;;;;;;1.52;1.23;;;;;;;;;;10316716;28;20491;-62
2021/08/28 04:12:23;;;;;;;2.83;1.90;;;;;;;;;;10320276;28;20037;-65
2021/08/28 04:17:26;;;;;;;3.95;1.67;;;;;;;;;;10329821;28;20072;-65
2021/08/28 04:22:24;;;;;;;2.47;1.77;;;;;;;;;;10314467;28;20561;-64
2021/08/28 04:27:39;;;;;;;5.38;2.30;;;;;;;;;;10345583;28;20041;-64
2021/08/28 04:32:38;;;;;;;1.80;1.40;;;;;;;;;;10311273;28;20083;-66
2021/08/28 04:37:35;;;;;;;2.90;1.70;;;;;;;;;;10330519;28;20040;-65
2021/08/28 04:42:33;;;;;;;3.10;2.33;;;;;;;;;;10331029;28;20486;-64
2021/08/28 04:47:31;;;;;;;3.55;1.58;;;;;;;;;;10300568;28;20521;-64
2021/08/28 04:52:29;;;;;;;5.20;2.40;;;;;;;;;;10295826;28;20041;-65
2021/08/28 04:57:26;;;;;;;5.30;1.93;;;;;;;;;;10231301;28;20141;-64
2021/08/28 05:02:26;;;;;;;5.95;2.58;;;;;;;;;;10258025;28;20507;-65
2021/08/28 05:07:31;;;;;;;4.78;1.85;;;;;;;;;;10249220;28;20026;-62
2021/08/28 05:12:30;;;;;;;5.43;2.15;;;;;;;;;;10267349;28;20045;-62
2021/08/28 05:18:00;;;;;;;2.17;1.70;;;;;;;;;;10256538;28;20124;-63
2021/08/28 05:22:59;;;;;;;7.28;2.30;;;;;;;;;;10250463;28;20034;-62
2021/08/28 05:28:35;;;;;;;3.00;1.90;;;;;;;;;;10122013;28;20043;-62
2021/08/28 05:33:34;;;;;;;3.78;2.05;;;;;;;;;;10211842;28;20029;-63
2021/08/28 05:38:34;;;;;;;4.03;1.85;;;;;;;;;;10247441;28;20025;-62
2021/08/28 05:43:32;;;;;;;4.77;2.03;;;;;;;;;;10264967;28;20025;-66
2021/08/28 05:48:30;;;;;;;7.28;1.65;;;;;;;;;;10249449;28;20510;-63
2021/08/28 05:53:34;;;;;;;1.88;1.05;;;;;;;;;;10260899;28;20030;-65
2021/08/28 05:58:33;;;;;;;4.63;1.73;;;;;;;;;;10260952;28;20547;-63
2021/08/28 06:03:31;;;;;;;3.28;2.22;;;;;;;;;;10263068;28;20025;-66
2021/08/28 06:08:35;;;;;;;3.50;1.73;;;;;;;;;;10265641;28;20137;-63
2021/08/28 06:13:53;;;;;;;3.08;1.33;;;;;;;;;;10283015;28;20036;-65
2021/08/28 06:19:05;;;;;;;2.67;0.80;;;;;;;;;;10264787;28;20030;-63
2021/08/28 06:24:03;;;;;;;1.73;1.10;;;;;;;;;;10260548;28;20040;-64
2021/08/28 06:29:19;;;;;;;2.85;1.00;;;;;;;;;;10263635;28;20041;-62
2021/08/28 06:34:22;;;;;;;2.85;1.10;;;;;;;;;;10249624;28;20493;-65
2021/08/28 06:39:19;;;;;;;4.33;0.70;;;;;;;;;;10253772;28;20038;-64
2021/08/28 06:44:35;;;;;;;2.88;0.70;;;;;;;;;;10270537;28;20029;-62
2021/08/28 06:49:41;;;;;;;3.63;0.77;;;;;;;;;;10267194;28;20034;-63
2021/08/28 06:55:02;;;;;;;1.17;0.80;;;;;;;;;;10243677;28;20506;-61
2021/08/28 07:00:18;;;;;;;1.13;0.70;;;;;;;;;;10280504;28;20045;-62
2021/08/28 07:05:52;;;;;;;1.90;0.55;;;;;;;;;;10262491;28;20026;-61
2021/08/28 07:10:54;;;;;;;2.60;0.70;;;;;;;;;;10248506;28;20073;-62
2021/08/28 07:15:52;;;;;;;1.70;0.80;;;;;;;;;;10287762;28;20033;-61
2021/08/28 07:20:50;;;;;;;4.03;0.83;;;;;;;;;;10238002;28;20503;-64
2021/08/28 07:25:49;;;;;;;23.30;7.53;;;;;;;;;;10247103;28;20331;-63
2021/08/28 07:30:47;;;;;;;10.33;2.30;;;;;;;;;;10244982;28;20037;-62
2021/08/28 07:35:44;;;;;;;6.53;2.00;;;;;;;;;;10276141;28;20502;-63
2021/08/28 07:40:42;;;;;;;8.63;2.17;;;;;;;;;;10262001;28;20296;-62
2021/08/28 07:45:40;;;;;;;5.97;1.97;;;;;;;;;;10249132;28;20025;-64
2021/08/28 07:50:42;;;;;;;5.45;1.20;;;;;;;;;;10280347;28;20379;-63
2021/08/28 07:55:40;;;;;;;5.97;0.90;;;;;;;;;;10271249;28;20029;-63
2021/08/28 08:00:37;;;;;;;2.43;1.00;;;;;;;;;;10260375;28;20033;-65
2021/08/28 08:05:35;;;;;;;4.93;0.97;;;;;;;;;;10255458;28;20109;-62
2021/08/28 08:10:51;;;;;;;1.55;0.45;;;;;;;;;;10274007;28;20132;-63
2021/08/28 08:16:09;;;;;;;2.05;0.43;;;;;;;;;;10272775;28;20057;-64
2021/08/28 08:21:25;;;;;;;0.75;0.40;;;;;;;;;;10267873;28;20391;-64
2021/08/28 08:26:43;;;;;;;0.95;0.40;;;;;;;;;;10274706;28;21067;-62
2021/08/28 08:31:59;;;;;;;0.63;0.43;;;;;;;;;;10279808;28;20045;-65
2021/08/28 08:37:13;;;;;;;3.00;0.45;;;;;;;;;;10267038;28;20115;-63
2021/08/28 08:42:11;;;;;;;0.63;0.40;;;;;;;;;;10270399;28;20132;-63
2021/08/28 08:47:08;;;;;;;;;;;;;;;;;;10274780;28;20397;-64
2021/08/28 08:52:06;;;;;;;1.50;0.40;;;;;;;;;;10261080;28;20023;-63
2021/08/28 08:57:20;;;;;;;0.52;0.40;;;;;;;;;;10251551;28;20471;-64
2021/08/28 09:02:18;;;;;;;2.00;0.50;;;;;;;;;;10243781;28;20033;-65
2021/08/28 09:07:34;;;;;;;1.98;0.60;;;;;;;;;;10269523;28;20619;-64
2021/08/28 09:12:36;;;;;;;2.20;0.90;;;;;;;;;;10249046;28;20057;-64
2021/08/28 09:17:34;;;;;;;2.50;0.30;;;;;;;;;;10235000;28;20524;-63
2021/08/28 09:22:33;;;;;;;3.97;0.65;;;;;;;;;;10249212;28;20048;-65
2021/08/28 09:27:41;;;;;;;1.48;0.40;;;;;;;;;;10266356;28;20148;-64
2021/08/28 09:32:44;;;;;;;0.50;0.40;;;;;;;;;;10223296;28;20117;-66
2021/08/28 09:37:44;;;;;;;0.22;0.20;;;;;;;;;;10265288;28;20657;-64
2021/08/28 09:42:51;;;;;;;0.40;0.20;;;;;;;;;;10269264;28;20045;-68
2021/08/28 09:47:49;;;;;;;1.20;0.47;;;;;;;;;;10263053;28;20033;-66
2021/08/28 09:52:49;;;;;;;0.50;0.40;;;;;;;;;;10245091;28;20061;-65
2021/08/28 09:57:51;;;;;;;0.68;0.52;;;;;;;;;;10262173;28;20044;-67
2021/08/28 10:02:58;;;;;;;0.98;0.40;;;;;;;;;;10264470;28;20069;-65
2021/08/28 10:07:58;;;;;;;0.73;0.60;;;;;;;;;;10275149;28;20092;-65
2021/08/28 10:12:56;;;;;;;0.38;0.38;;;;;;;;;;10259108;28;20136;-65
2021/08/28 10:17:54;;;;;;;;;;;;;;;;;;10209725;28;20059;-66
2021/08/28 10:22:52;;;;;;;1.13;0.73;;;;;;;;;;10215834;28;19932;-67
2021/08/28 10:27:51;;;;;;;0.47;0.47;;;;;;;;;;10199994;28;20276;-65
2021/08/28 10:32:49;;;;;;;0.57;0.30;;;;;;;;;;10218095;28;20371;-66
2021/08/28 10:37:47;;;;;;;0.60;0.52;;;;;;;;;;10217043;28;20091;-68
2021/08/28 10:42:44;;;;;;;;;;;;;;;;;;10253238;28;20037;-68
2021/08/28 10:47:44;;;;;;;1.23;0.50;;;;;;;;;;10254383;28;19952;-66
2021/08/28 10:52:43;;;;;;;;;;;;;;;;;;10248034;28;20394;-66
2021/08/28 10:57:40;;;;;;;0.90;0.60;;;;;;;;;;10265784;28;20286;-64
2021/08/28 11:02:47;;;;;;;2.10;0.43;;;;;;;;;;10248666;28;20030;-66
2021/08/28 11:07:45;;;;;;;0.68;0.43;;;;;;;;;;10236571;28;20502;-66
2021/08/28 11:12:48;;;;;;;1.00;0.37;;;;;;;;;;10265929;28;20034;-66
2021/08/28 11:17:46;;;;;;;1.35;0.65;;;;;;;;;;10275266;28;20434;-65
2021/08/28 11:22:43;;;;;;;0.90;0.50;;;;;;;;;;10276542;28;20037;-66
2021/08/28 11:27:42;;;;;;;0.40;0.40;;;;;;;;;;10262223;28;20071;-65
2021/08/28 11:32:39;;;;;;;0.90;0.40;;;;;;;;;;10276908;28;20025;-66
2021/08/28 11:37:37;;;;;;;0.30;0.30;;;;;;;;;;10254342;28;20029;-61
2021/08/28 11:42:41;;;;;;;1.45;0.50;;;;;;;;;;10295992;28;20038;-63
2021/08/28 11:47:39;;;;;;;0.10;0.10;;;;;;;;;;10264530;28;20058;-62
2021/08/28 11:52:37;;;;;;;0.23;0.23;;;;;;;;;;10270708;28;20073;-65
2021/08/28 11:57:35;;;;;;;0.57;0.40;;;;;;;;;;10284024;28;20092;-62
2021/08/28 12:02:33;;;;;;;;;;;;;;;;;;10281041;28;20515;-62
2021/08/28 12:07:30;;;;;;;0.43;0.28;;;;;;;;;;10249202;28;19921;-62
2021/08/28 12:12:28;;;;;;;0.53;0.37;;;;;;;;;;10268828;28;20037;-61
2021/08/28 12:17:29;;;;;;;0.70;0.40;;;;;;;;;;10259063;28;20537;-67
2021/08/28 12:22:26;;;;;;;0.20;0.20;;;;;;;;;;10266403;28;20122;-64
2021/08/28 12:27:24;;;;;;;0.27;0.27;;;;;;;;;;10281928;28;20498;-64
2021/08/28 12:32:25;;;;;;;2.90;0.27;;;;;;;;;;10274935;28;20049;-62
2021/08/28 12:37:24;;;;;;;1.15;0.40;;;;;;;;;;10243145;28;20037;-64
2021/08/28 12:42:23;;;;;;;0.30;0.30;;;;;;;;;;10255369;28;20402;-64
2021/08/28 12:47:20;;;;;;;;;;;;;;;;;;10276758;28;20042;-65
2021/08/28 12:52:17;;;;;;;0.63;0.40;;;;;;;;;;10281424;28;20318;-63
2021/08/28 12:57:30;;;;;;;0.20;0.20;;;;;;;;;;10288497;28;20045;-62
2021/08/28 13:02:28;;;;;;;0.30;0.30;;;;;;;;;;10272860;28;20486;-66
2021/08/28 13:07:26;;;;;;;;;;;;;;;;;;10268237;28;20048;-66
2021/08/28 13:12:39;;;;;;;1.45;0.52;;;;;;;;;;10259930;28;19913;-64
2021/08/28 13:17:37;;;;;;;0.95;0.60;;;;;;;;;;10272117;28;20057;-65
2021/08/28 13:22:39;;;;;;;0.35;0.35;;;;;;;;;;10266345;28;20049;-66
2021/08/28 13:27:43;;;;;;;4.82;1.13;;;;;;;;;;10271479;28;20794;-62
2021/08/28 13:33:01;;;;;;;1.52;0.47;;;;;;;;;;10268553;28;20037;-64
2021/08/28 13:38:02;;;;;;;2.30;0.60;;;;;;;;;;10271836;28;20087;-65
2021/08/28 13:42:59;;;;;;;0.10;0.10;;;;;;;;;;10278118;28;20048;-64
2021/08/28 13:47:57;;;;;;;0.73;0.73;;;;;;;;;;10268033;28;20052;-64
2021/08/28 13:52:54;;;;;;;4.80;0.63;;;;;;;;;;10256885;28;20494;-64
2021/08/28 13:57:52;;;;;;;3.77;0.93;;;;;;;;;;10278741;28;20040;-62
2021/08/28 14:02:49;;;;;;;0.80;0.60;;;;;;;;;;10282505;28;20094;-62
2021/08/28 14:07:47;;;;;;;0.67;0.60;;;;;;;;;;10262319;28;20045;-61
2021/08/28 14:12:44;;;;;;;0.50;0.30;;;;;;;;;;10264279;28;20290;-62
2021/08/28 14:17:42;;;;;;;2.70;0.60;;;;;;;;;;10260328;28;20037;-63
2021/08/28 14:22:39;;;;;;;0.43;0.43;;;;;;;;;;10282542;28;20061;-63
2021/08/28 14:27:37;;;;;;;0.30;0.30;;;;;;;;;;10280553;28;20521;-62
2021/08/28 14:32:34;;;;;;;0.37;0.37;;;;;;;;;;10282307;28;20040;-64
2021/08/28 14:37:32;;;;;;;0.57;0.52;;;;;;;;;;10278647;28;20042;-64
2021/08/28 14:42:29;;;;;;;2.70;0.67;;;;;;;;;;10288101;28;20045;-65
2021/08/28 14:47:28;;;;;;;3.87;0.50;;;;;;;;;;10288681;28;20566;-65
2021/08/28 14:52:25;;;;;;;1.42;0.40;;;;;;;;;;10284965;28;20034;-65
2021/08/28 14:57:24;;;;;;;0.63;0.20;;;;;;;;;;10299841;28;20038;-70
2021/08/28 15:02:25;;;;;;;0.30;0.30;;;;;;;;;;10248341;28;20064;-64
2021/08/28 15:07:23;;;;;;;1.13;0.43;;;;;;;;;;10220867;28;20124;-63
2021/08/28 15:12:20;;;;;;;3.53;1.33;;;;;;;;;;10241348;28;20970;-68
2021/08/28 15:17:17;;;;;;;4.30;1.90;;;;;;;;;;10244270;28;20073;-66
2021/08/28 15:22:15;;;;;;;1.80;0.50;;;;;;;;;;10243506;28;20056;-68
2021/08/28 15:27:12;;;;;;;0.73;0.45;;;;;;;;;;10230196;28;20627;-66
2021/08/28 15:32:10;;;;;;;3.10;0.57;;;;;;;;;;10243467;28;21368;-66
2021/08/28 15:37:07;;;;;;;1.50;0.57;;;;;;;;;;10239369;28;20038;-67
2021/08/28 15:42:05;;;;;;;0.67;0.27;;;;;;;;;;10227738;28;20048;-66
2021/08/28 15:47:02;;;;;;;0.23;0.10;;;;;;;;;;10245824;28;20034;-66
2021/08/28 15:52:00;;;;;;;0.50;0.43;;;;;;;;;;10225986;28;20052;-67
2021/08/28 15:56:58;;;;;;;0.17;0.17;;;;;;;;;;10234812;28;20119;-66
2021/08/28 16:01:56;;;;;;;3.63;1.13;;;;;;;;;;10229985;28;20396;-67
2021/08/28 16:06:54;;;;;;;13.45;3.75;;;;;;;;;;10216193;28;20076;-64
2021/08/28 16:11:53;;;;;;;8.23;2.27;;;;;;;;;;10271552;28;20124;-63
2021/08/28 16:16:50;;;;;;;22.98;6.15;;;;;;;;;;10260686;28;20411;-63
2021/08/28 16:21:48;;;;;;;46.23;14.57;;;;;;;;;;10281499;28;20034;-65
2021/08/28 16:26:46;;;;;;;16.97;11.60;;;;;;;;;;10297205;28;20041;-62
2021/08/28 16:31:44;;;;;;;14.27;6.95;;;;;;;;;;10242849;28;20038;-66
2021/08/28 16:36:41;;;;;;;17.00;6.10;;;;;;;;;;10280624;28;20038;-64
2021/08/28 16:41:39;;;;;;;12.87;7.00;;;;;;;;;;10268830;28;20132;-64
2021/08/28 16:46:38;;;;;;;10.77;5.30;;;;;;;;;;10273358;28;21404;-64
2021/08/28 16:51:35;;;;;;;10.88;5.28;;;;;;;;;;10255240;28;20534;-63
2021/08/28 16:56:32;;;;;;;30.03;6.73;;;;;;;;;;10274397;28;20400;-65
2021/08/28 17:01:30;;;;;;;11.43;4.77;;;;;;;;;;10280001;28;20052;-64
2021/08/28 17:06:27;;;;;;;4.43;2.43;;;;;;;;;;10287637;28;20400;-63
2021/08/28 17:11:26;;;;;;;5.60;2.83;;;;;;;;;;10267042;28;20038;-63
2021/08/28 17:16:24;;;;;;;6.07;2.88;;;;;;;;;;10288459;28;20124;-63
2021/08/28 17:21:21;;;;;;;7.03;3.07;;;;;;;;;;10246928;28;20045;-65
2021/08/28 17:26:19;;;;;;;8.87;2.70;;;;;;;;;;10275763;28;20048;-63
2021/08/28 17:31:17;;;;;;;4.20;2.03;;;;;;;;;;10265804;28;20045;-69
2021/08/28 17:36:14;;;;;;;8.60;2.00;;;;;;;;;;10255745;28;20033;-64
2021/08/28 17:41:12;;;;;;;4.57;1.80;;;;;;;;;;10273391;28;20042;-65
2021/08/28 17:46:09;;;;;;;6.13;1.83;;;;;;;;;;10250670;28;20436;-65
2021/08/28 17:51:09;;;;;;;1.23;1.10;;;;;;;;;;10251337;28;20136;-63
2021/08/28 17:56:06;;;;;;;1.55;1.05;;;;;;;;;;10262501;28;20044;-65
2021/08/28 18:01:04;;;;;;;3.23;1.50;;;;;;;;;;10273482;28;20048;-63
2021/08/28 18:06:02;;;;;;;1.63;1.10;;;;;;;;;;10253189;28;20037;-63
2021/08/28 18:10:59;;;;;;;3.63;1.50;;;;;;;;;;10266218;28;20037;-64
2021/08/28 18:15:56;;;;;;;3.50;1.50;;;;;;;;;;10266462;28;20296;-67
2021/08/28 18:20:54;;;;;;;5.03;1.90;;;;;;;;;;10262907;28;20068;-64
2021/08/28 18:25:51;;;;;;;3.37;1.20;;;;;;;;;;10257891;28;20068;-64
2021/08/28 18:30:49;;;;;;;1.97;1.33;;;;;;;;;;10258279;28;20044;-67
2021/08/28 18:35:46;;;;;;;3.22;1.17;;;;;;;;;;10253649;28;20037;-66
2021/08/28 18:40:44;;;;;;;3.80;1.07;;;;;;;;;;10269298;28;20115;-65
2021/08/28 18:45:41;;;;;;;3.10;1.30;;;;;;;;;;10269754;28;20074;-62
2021/08/28 18:50:39;;;;;;;6.13;1.37;;;;;;;;;;10277804;28;20033;-63
2021/08/28 18:55:36;;;;;;;2.00;1.27;;;;;;;;;;10258668;28;20052;-62
2021/08/28 19:00:34;;;;;;;2.77;1.10;;;;;;;;;;10273795;28;20378;-63
2021/08/28 19:05:31;;;;;;;3.10;1.57;;;;;;;;;;10237574;28;20045;-64
2021/08/28 19:10:29;;;;;;;1.20;1.10;;;;;;;;;;10243108;28;20033;-62
2021/08/28 19:15:26;;;;;;;1.47;1.17;;;;;;;;;;10274605;28;20033;-62
2021/08/28 19:20:23;;;;;;;1.23;1.07;;;;;;;;;;10277456;28;20052;-62
2021/08/28 19:25:22;;;;;;;1.43;1.07;;;;;;;;;;10246270;28;20129;-63
2021/08/28 19:30:19;;;;;;;1.50;0.82;;;;;;;;;;10275270;28;20099;-63
2021/08/28 19:35:17;;;;;;;2.57;0.73;;;;;;;;;;10252711;28;20523;-65
2021/08/28 19:40:14;;;;;;;0.90;0.90;;;;;;;;;;10285933;28;20048;-63
2021/08/28 19:45:12;;;;;;;2.50;1.37;;;;;;;;;;10282488;28;20037;-64
2021/08/28 19:50:09;;;;;;;2.03;1.30;;;;;;;;;;10286438;28;20041;-63
2021/08/28 19:55:07;;;;;;;2.47;1.47;;;;;;;;;;10272105;28;20040;-63
2021/08/28 20:00:06;;;;;;;3.47;1.30;;;;;;;;;;10280946;28;20142;-64
2021/08/28 20:05:10;;;;;;;2.00;1.02;;;;;;;;;;10279243;28;20083;-64
2021/08/28 20:10:08;;;;;;;2.15;1.20;;;;;;;;;;10295308;28;20095;-64
2021/08/28 20:15:06;;;;;;;4.50;2.20;;;;;;;;;;10286598;28;20524;-65
2021/08/28 20:20:04;;;;;;;8.57;2.85;;;;;;;;;;10292939;28;20599;-64
2021/08/28 20:25:02;;;;;;;9.27;3.53;;;;;;;;;;10283690;28;20053;-65
2021/08/28 20:29:59;;;;;;;7.53;3.08;;;;;;;;;;10291740;28;20057;-64
2021/08/28 20:34:57;;;;;;;2.27;1.67;;;;;;;;;;10275182;28;20057;-64
2021/08/28 20:39:54;;;;;;;6.97;2.50;;;;;;;;;;10245279;28;20627;-65
2021/08/28 20:44:52;;;;;;;15.73;3.80;;;;;;;;;;10264353;28;20037;-63
2021/08/28 20:49:50;;;;;;;12.20;4.30;;;;;;;;;;10235788;28;20052;-64
2021/08/28 20:54:48;;;;;;;6.00;2.60;;;;;;;;;;10261580;28;20037;-69
2021/08/28 20:59:46;;;;;;;12.80;3.72;;;;;;;;;;10246458;28;20037;-64
2021/08/28 21:04:46;;;;;;;11.60;3.23;;;;;;;;;;10283691;28;20029;-65
2021/08/28 21:09:43;;;;;;;14.30;2.97;;;;;;;;;;10259019;28;20478;-65
2021/08/28 21:14:41;;;;;;;11.33;3.07;;;;;;;;;;10293657;28;20037;-64
2021/08/28 21:19:38;;;;;;;2.83;1.57;;;;;;;;;;10281194;28;20040;-64
2021/08/28 21:24:35;;;;;;;5.10;1.40;;;;;;;;;;10283859;28;20491;-65
2021/08/28 21:29:33;;;;;;;4.10;1.17;;;;;;;;;;10246849;28;20053;-64
2021/08/28 21:34:30;;;;;;;2.07;1.23;;;;;;;;;;10274331;28;20676;-63
2021/08/28 21:39:30;;;;;;;3.40;1.30;;;;;;;;;;10266930;28;20439;-67
2021/08/28 21:44:28;;;;;;;1.05;0.80;;;;;;;;;;10271298;28;20055;-65
2021/08/28 21:49:25;;;;;;;7.00;2.03;;;;;;;;;;10274986;28;20044;-64
2021/08/28 21:54:23;;;;;;;2.23;1.07;;;;;;;;;;10281637;28;20021;-65
2021/08/28 21:59:21;;;;;;;7.57;2.20;;;;;;;;;;10285804;28;20068;-65
2021/08/28 22:04:19;;;;;;;9.35;3.20;;;;;;;;;;10270043;28;20486;-66
2021/08/28 22:09:16;;;;;;;7.60;2.13;;;;;;;;;;10258194;28;20470;-65
2021/08/28 22:14:14;;;;;;;7.83;2.27;;;;;;;;;;10232296;28;20044;-65
2021/08/28 22:19:11;;;;;;;11.40;2.90;;;;;;;;;;10286270;28;20030;-65
2021/08/28 22:24:08;;;;;;;4.50;2.03;;;;;;;;;;10257097;28;20044;-64
2021/08/28 22:29:06;;;;;;;5.03;3.40;;;;;;;;;;10253178;28;20099;-63
2021/08/28 22:34:03;;;;;;;5.87;2.30;;;;;;;;;;10287664;28;20146;-62
2021/08/28 22:39:01;;;;;;;6.07;2.67;;;;;;;;;;10270229;28;20384;-63
2021/08/28 22:43:58;;;;;;;7.47;3.80;;;;;;;;;;10270029;28;20042;-64
2021/08/28 22:48:55;;;;;;;7.67;3.37;;;;;;;;;;10272466;28;20555;-65
2021/08/28 22:53:53;;;;;;;10.30;3.93;;;;;;;;;;10269665;28;20049;-68
2021/08/28 22:58:51;;;;;;;6.35;3.10;;;;;;;;;;10259090;28;20034;-64
2021/08/28 23:03:48;;;;;;;10.57;3.37;;;;;;;;;;10261468;28;20056;-64
2021/08/28 23:08:45;;;;;;;7.87;3.27;;;;;;;;;;10288106;28;20047;-65
2021/08/28 23:13:43;;;;;;;3.93;2.20;;;;;;;;;;10277929;28;20418;-67
2021/08/28 23:18:40;;;;;;;5.27;1.77;;;;;;;;;;10270322;28;20037;-66
2021/08/28 23:23:38;;;;;;;4.50;1.93;;;;;;;;;;10257557;28;20040;-65
2021/08/28 23:28:35;;;;;;;4.85;3.28;;;;;;;;;;10291072;28;20109;-65
2021/08/28 23:33:33;;;;;;;6.90;3.93;;;;;;;;;;10269345;28;20041;-65
2021/08/28 23:38:30;;;;;;;4.83;2.97;;;;;;;;;;10286761;28;20034;-67
2021/08/28 23:43:28;;;;;;;2.00;1.40;;;;;;;;;;10275154;28;20087;-67
2021/08/28 23:48:25;;;;;;;5.50;2.57;;;;;;;;;;10273114;28;20206;-66
2021/08/28 23:53:22;;;;;;;2.63;1.73;;;;;;;;;;10265806;28;20045;-64
2021/08/28 23:58:20;;;;;;;4.57;1.90;;;;;;;;;;10287972;28;20384;-65
